createdAt,value
2022-08-11T00:01:54.035Z,3.20
2022-08-11T00:04:24.292Z,3.40
2022-08-11T00:06:52.395Z,3.50
2022-08-11T00:09:22.351Z,3.60
2022-08-11T00:11:58.642Z,3.20
2022-08-11T00:14:37.176Z,3.40
2022-08-11T00:17:15.808Z,3.67
2022-08-11T00:20:15.193Z,3.20
2022-08-11T00:22:33.967Z,3.07
2022-08-11T00:25:10.211Z,3.03
2022-08-11T00:27:39.630Z,3.17
2022-08-11T00:30:13.270Z,3.30
2022-08-11T00:32:43.521Z,3.33
2022-08-11T00:35:54.808Z,3.30
2022-08-11T00:38:02.783Z,3.50
2022-08-11T00:40:52.052Z,3.67
2022-08-11T00:43:22.357Z,3.40
2022-08-11T00:46:07.729Z,3.20
2022-08-11T00:48:52.734Z,3.60
2022-08-11T00:52:02.295Z,3.23
2022-08-11T00:54:39.682Z,3.50
2022-08-11T00:57:36.713Z,3.43
2022-08-11T01:00:14.717Z,3.80
2022-08-11T01:03:18.197Z,3.40
2022-08-11T01:06:15.535Z,3.60
2022-08-11T01:09:22.286Z,3.00
2022-08-11T01:12:00.156Z,3.60
2022-08-11T01:14:57.871Z,3.10
2022-08-11T01:17:27.046Z,3.33
2022-08-11T01:20:47.009Z,3.70
2022-08-11T01:23:24.713Z,3.73
2022-08-11T01:26:09.805Z,3.77
2022-08-11T01:28:42.197Z,4.00
2022-08-11T01:31:23.665Z,3.50
2022-08-11T01:34:27.125Z,3.30
2022-08-11T01:37:13.736Z,3.90
2022-08-11T01:40:14.405Z,3.43
2022-08-11T01:43:18.282Z,3.57
2022-08-11T01:45:56.051Z,3.20
2022-08-11T01:48:41.313Z,3.93
2022-08-11T01:51:35.939Z,3.67
2022-08-11T01:54:48.897Z,3.57
2022-08-11T01:57:38.135Z,3.87
2022-08-11T02:00:14.219Z,3.30
2022-08-11T02:03:04.378Z,3.83
2022-08-11T02:05:48.875Z,4.10
2022-08-11T02:08:51.300Z,3.70
2022-08-11T02:11:38.044Z,3.80
2022-08-11T02:14:33.307Z,4.03
2022-08-11T02:17:15.250Z,3.93
2022-08-11T02:20:10.115Z,4.20
2022-08-11T02:23:04.598Z,4.00
2022-08-11T02:25:36.760Z,4.07
2022-08-11T02:28:30.207Z,4.03
2022-08-11T02:32:15.646Z,4.10
2022-08-11T02:34:32.386Z,3.87
2022-08-11T02:37:14.204Z,4.33
2022-08-11T02:39:52.276Z,4.07
2022-08-11T02:42:46.732Z,4.27
2022-08-11T02:45:28.620Z,4.37
2022-08-11T02:48:21.409Z,3.97
2022-08-11T02:51:03.250Z,4.60
2022-08-11T02:54:02.858Z,4.30
2022-08-11T02:56:44.366Z,4.30
2022-08-11T02:59:50.790Z,4.30
2022-08-11T03:02:32.543Z,4.80
2022-08-11T03:05:11.955Z,3.80
2022-08-11T03:07:56.039Z,4.23
2022-08-11T03:10:28.337Z,4.20
2022-08-11T03:13:37.997Z,4.13
2022-08-11T03:16:36.016Z,4.20
2022-08-11T03:19:22.019Z,4.40
2022-08-11T03:22:02.251Z,4.30
2022-08-11T03:24:54.335Z,4.40
2022-08-11T03:27:32.883Z,4.20
2022-08-11T03:30:17.540Z,4.33
2022-08-11T03:33:33.735Z,3.97
2022-08-11T03:36:24.961Z,4.07
2022-08-11T03:39:03.287Z,3.83
2022-08-11T03:42:03.936Z,4.20
2022-08-11T03:44:43.218Z,4.40
2022-08-11T03:47:38.540Z,4.83
2022-08-11T03:50:23.280Z,4.23
2022-08-11T03:52:53.979Z,4.13
2022-08-11T03:55:38.850Z,4.97
2022-08-11T03:58:41.981Z,4.00
2022-08-11T04:01:18.592Z,4.40
2022-08-11T04:04:09.227Z,4.23
2022-08-11T04:07:00.143Z,4.00
2022-08-11T04:09:48.564Z,4.57
2022-08-11T04:12:36.136Z,3.93
2022-08-11T04:15:40.287Z,4.60
2022-08-11T04:18:39.166Z,4.47
2022-08-11T04:21:08.567Z,4.47
2022-08-11T04:24:35.657Z,4.53
2022-08-11T04:27:01.936Z,4.47
2022-08-11T04:30:03.961Z,4.70
2022-08-11T04:32:56.698Z,4.10
2022-08-11T04:35:38.816Z,4.10
2022-08-11T04:38:33.294Z,4.37
2022-08-11T04:42:09.374Z,4.30
2022-08-11T04:44:50.741Z,4.50
2022-08-11T04:48:06.615Z,4.50
2022-08-11T04:51:17.843Z,4.47
2022-08-11T04:54:34.288Z,4.30
2022-08-11T04:57:28.329Z,5.03
2022-08-11T05:00:31.399Z,4.20
2022-08-11T05:03:32.325Z,4.50
2022-08-11T05:06:25.106Z,4.27
2022-08-11T05:09:13.842Z,4.20
2022-08-11T05:12:07.647Z,4.67
2022-08-11T05:15:42.451Z,4.20
2022-08-11T05:18:42.993Z,4.43
2022-08-11T05:21:31.190Z,4.20
2022-08-11T05:24:38.169Z,4.47
2022-08-11T05:27:26.056Z,4.53
2022-08-11T05:30:23.563Z,4.07
2022-08-11T05:33:29.155Z,4.03
2022-08-11T05:36:05.600Z,4.20
2022-08-11T05:38:53.555Z,5.43
2022-08-11T05:41:41.962Z,4.37
2022-08-11T05:44:28.732Z,4.57
2022-08-11T05:47:14.157Z,4.90
2022-08-11T05:50:00.114Z,4.33
2022-08-11T05:52:49.333Z,4.47
2022-08-11T05:56:01.658Z,4.80
2022-08-11T05:58:42.765Z,4.43
2022-08-11T06:01:11.751Z,4.87
2022-08-11T06:03:58.766Z,4.50
2022-08-11T06:06:29.057Z,4.80
2022-08-11T06:08:57.053Z,5.07
2022-08-11T06:11:44.388Z,4.60
2022-08-11T06:14:12.272Z,4.80
2022-08-11T06:16:41.793Z,4.70
2022-08-11T06:19:10.300Z,4.70
2022-08-11T06:21:37.859Z,4.67
2022-08-11T06:24:12.268Z,4.73
2022-08-11T06:27:01.738Z,4.90
2022-08-11T06:29:37.834Z,4.53
2022-08-11T06:32:15.510Z,4.67
2022-08-11T06:35:02.983Z,5.10
2022-08-11T06:38:03.627Z,5.00
2022-08-11T06:40:43.344Z,5.30
2022-08-11T06:43:23.455Z,4.03
2022-08-11T06:46:04.427Z,5.17
2022-08-11T06:48:33.500Z,4.80
2022-08-11T06:51:12.227Z,4.30
2022-08-11T06:54:04.233Z,4.43
2022-08-11T06:57:29.533Z,5.10
2022-08-11T07:00:04.063Z,4.90
2022-08-11T07:02:34.764Z,4.13
2022-08-11T07:05:22.982Z,4.90
2022-08-11T07:08:52.882Z,4.93
2022-08-11T07:11:45.773Z,4.70
2022-08-11T07:14:38.615Z,4.77
2022-08-11T07:17:08.457Z,5.07
2022-08-11T07:19:53.793Z,5.10
2022-08-11T07:22:43.122Z,4.50
2022-08-11T07:25:32.338Z,5.27
2022-08-11T07:28:25.683Z,5.37
2022-08-11T07:30:58.379Z,5.40
2022-08-11T07:34:07.746Z,4.90
2022-08-11T07:36:18.857Z,4.47
2022-08-11T07:38:51.515Z,4.57
2022-08-11T07:41:19.377Z,4.63
2022-08-11T07:43:51.373Z,5.10
2022-08-11T07:46:38.439Z,4.77
2022-08-11T07:49:27.138Z,4.53
2022-08-11T07:52:13.692Z,4.53
2022-08-11T07:54:41.540Z,5.20
2022-08-11T07:58:14.251Z,4.63
2022-08-11T08:00:33.757Z,4.70
2022-08-11T08:03:20.994Z,5.13
2022-08-11T08:06:15.403Z,4.23
2022-08-11T08:09:15.108Z,4.87
2022-08-11T08:12:02.984Z,4.53
2022-08-11T08:14:49.011Z,4.43
2022-08-11T08:17:34.290Z,4.60
2022-08-11T08:20:00.921Z,3.93
2022-08-11T08:22:38.433Z,4.87
2022-08-11T08:25:15.150Z,4.10
2022-08-11T08:27:43.503Z,4.23
2022-08-11T08:30:28.575Z,4.53
2022-08-11T08:32:57.696Z,4.43
2022-08-11T08:35:24.281Z,4.37
2022-08-11T08:37:52.668Z,4.57
2022-08-11T08:40:19.581Z,4.40
2022-08-11T08:42:51.609Z,4.57
2022-08-11T08:45:18.890Z,4.00
2022-08-11T08:48:05.482Z,4.63
2022-08-11T08:50:55.013Z,4.10
2022-08-11T08:53:29.448Z,4.23
2022-08-11T08:55:56.815Z,4.10
2022-08-11T08:58:23.787Z,4.53
2022-08-11T09:00:52.018Z,4.30
2022-08-11T09:06:06.576Z,4.55
2022-08-11T09:08:33.275Z,4.20
2022-08-11T09:11:20.241Z,4.50
2022-08-11T09:14:03.187Z,4.38
2022-08-11T09:16:32.663Z,3.58
2022-08-11T09:19:01.282Z,4.20
2022-08-11T09:21:44.636Z,3.67
2022-08-11T09:24:33.112Z,4.53
2022-08-11T09:27:07.370Z,3.83
2022-08-11T09:29:34.079Z,4.22
2022-08-11T09:32:00.620Z,3.90
2022-08-11T09:34:28.243Z,4.03
2022-08-11T09:37:53.612Z,3.42
2022-08-11T09:40:20.076Z,3.83
2022-08-11T09:43:06.010Z,3.35
2022-08-11T09:45:40.220Z,3.95
2022-08-11T09:48:07.933Z,3.65
2022-08-11T09:50:36.248Z,3.60
2022-08-11T09:53:34.890Z,3.33
2022-08-11T09:55:53.477Z,3.45
2022-08-11T09:58:42.941Z,3.58
2022-08-11T10:01:26.913Z,4.07
2022-08-11T10:04:00.368Z,3.90
2022-08-11T10:06:47.571Z,3.85
2022-08-11T10:09:21.264Z,3.67
2022-08-11T10:11:57.744Z,3.33
2022-08-11T10:14:44.744Z,3.45
2022-08-11T10:17:13.114Z,3.42
2022-08-11T10:19:42.060Z,3.30
2022-08-11T10:22:27.931Z,3.47
2022-08-11T10:25:15.272Z,3.20
2022-08-11T10:28:16.884Z,3.95
2022-08-11T10:30:55.735Z,3.85
2022-08-11T10:33:57.633Z,3.70
2022-08-11T10:37:02.953Z,3.90
2022-08-11T10:39:29.531Z,4.47
2022-08-11T10:42:25.779Z,3.70
2022-08-11T10:45:03.592Z,3.50
2022-08-11T10:47:39.101Z,5.22
2022-08-11T10:50:32.787Z,3.97
2022-08-11T10:53:17.979Z,4.35
2022-08-11T10:58:47.395Z,3.45
2022-08-11T11:01:24.209Z,3.22
2022-08-11T11:04:01.159Z,3.70
2022-08-11T11:06:49.266Z,4.15
2022-08-11T11:09:18.023Z,4.18
2022-08-11T11:12:30.608Z,4.50
2022-08-11T11:15:17.838Z,4.20
2022-08-11T11:17:56.025Z,4.03
2022-08-11T11:20:34.578Z,3.92
2022-08-11T11:23:16.652Z,4.07
2022-08-11T11:26:10.176Z,4.35
2022-08-11T11:28:55.226Z,4.28
2022-08-11T11:31:50.956Z,4.18
2022-08-11T11:34:53.137Z,5.03
2022-08-11T11:37:23.562Z,3.80
2022-08-11T11:39:50.839Z,4.43
2022-08-11T11:42:18.346Z,4.13
2022-08-11T11:44:46.995Z,4.53
2022-08-11T11:47:15.549Z,3.90
2022-08-11T11:49:44.103Z,3.78
2022-08-11T11:52:18.041Z,4.13
2022-08-11T11:54:45.560Z,3.55
2022-08-11T11:57:30.766Z,4.00
2022-08-11T12:00:15.995Z,3.92
2022-08-11T12:02:43.371Z,3.88
2022-08-11T12:05:10.669Z,4.05
2022-08-11T12:08:05.095Z,4.15
2022-08-11T12:10:47.547Z,3.95
2022-08-11T12:13:34.823Z,4.43
2022-08-11T12:16:34.668Z,4.07
2022-08-11T12:18:53.454Z,3.88
2022-08-11T12:21:20.058Z,3.67
2022-08-11T12:24:06.262Z,3.60
2022-08-11T12:27:15.163Z,3.65
2022-08-11T12:29:36.005Z,4.63
2022-08-11T12:32:06.946Z,5.63
2022-08-11T12:34:33.475Z,3.88
2022-08-11T12:37:05.429Z,3.75
2022-08-11T12:40:16.910Z,3.80
2022-08-11T12:43:03.905Z,4.13
2022-08-11T12:45:33.167Z,4.10
2022-08-11T12:48:58.936Z,4.05
2022-08-11T12:52:13.228Z,4.30
2022-08-11T12:54:29.524Z,4.05
2022-08-11T12:57:45.828Z,4.57
2022-08-11T13:00:32.715Z,4.05
2022-08-11T13:03:19.649Z,4.20
2022-08-11T13:05:47.874Z,4.13
2022-08-11T13:08:17.758Z,4.20
2022-08-11T13:11:04.836Z,4.22
2022-08-11T13:13:53.509Z,4.43
2022-08-11T13:16:20.549Z,4.55
2022-08-11T13:18:47.442Z,4.32
2022-08-11T13:21:20.507Z,4.47
2022-08-11T13:24:01.540Z,4.15
2022-08-11T13:26:43.676Z,4.25
2022-08-11T13:29:25.195Z,4.45
2022-08-11T13:31:54.536Z,3.85
2022-08-11T13:34:24.011Z,4.30
2022-08-11T13:36:53.457Z,4.53
2022-08-11T13:39:25.042Z,4.07
2022-08-11T13:41:57.315Z,3.88
2022-08-11T13:44:29.814Z,4.30
2022-08-11T13:47:00.976Z,4.57
2022-08-11T13:49:28.649Z,3.90
2022-08-11T13:51:56.343Z,4.30
2022-08-11T13:54:25.925Z,4.47
2022-08-11T13:56:55.966Z,3.95
2022-08-11T13:59:30.766Z,4.47
2022-08-11T14:02:22.866Z,5.63
2022-08-11T14:04:57.693Z,4.20
2022-08-11T14:07:34.280Z,3.75
2022-08-11T14:10:02.360Z,4.18
2022-08-11T14:12:52.195Z,3.95
2022-08-11T14:15:25.437Z,3.90
2022-08-11T14:17:53.818Z,3.40
2022-08-11T14:20:39.485Z,4.18
2022-08-11T14:23:11.241Z,3.60
2022-08-11T14:26:02.515Z,4.13
2022-08-11T14:28:37.342Z,3.75
2022-08-11T14:31:08.351Z,4.05
2022-08-11T14:33:58.487Z,3.75
2022-08-11T14:36:24.672Z,4.40
2022-08-11T14:38:53.574Z,4.00
2022-08-11T14:42:11.192Z,4.57
2022-08-11T14:44:44.039Z,3.85
2022-08-11T14:47:24.275Z,3.97
2022-08-11T14:50:10.458Z,3.78
2022-08-11T14:52:59.258Z,3.72
2022-08-11T14:55:46.193Z,4.28
2022-08-11T14:58:19.055Z,3.42
2022-08-11T15:00:46.421Z,3.80
2022-08-11T15:03:14.409Z,4.00
2022-08-11T15:05:56.736Z,3.78
2022-08-11T15:08:50.487Z,4.22
2022-08-11T15:11:37.839Z,3.75
2022-08-11T15:14:07.298Z,3.55
2022-08-11T15:16:53.271Z,3.83
2022-08-11T15:19:20.933Z,3.97
2022-08-11T15:22:07.138Z,4.13
2022-08-11T15:24:36.184Z,3.45
2022-08-11T15:27:27.617Z,3.70
2022-08-11T15:30:26.862Z,3.33
2022-08-11T15:33:19.563Z,3.88
2022-08-11T15:36:04.715Z,3.78
2022-08-11T15:38:36.172Z,3.90
2022-08-11T15:41:24.514Z,3.92
2022-08-11T15:44:12.803Z,4.60
2022-08-11T15:46:45.396Z,4.50
2022-08-11T15:49:21.717Z,3.60
2022-08-11T15:52:09.836Z,3.60
2022-08-11T15:54:39.990Z,3.83
2022-08-11T15:57:07.503Z,3.53
2022-08-11T15:59:55.189Z,3.92
2022-08-11T16:02:25.203Z,3.85
2022-08-11T16:04:52.593Z,4.43
2022-08-11T16:07:27.173Z,3.17
2022-08-11T16:10:00.543Z,3.97
2022-08-11T16:12:35.271Z,3.65
2022-08-11T16:15:23.321Z,2.90
2022-08-11T16:17:57.484Z,4.10
2022-08-11T16:20:26.960Z,4.05
2022-08-11T16:23:02.471Z,3.80
2022-08-11T16:27:04.749Z,3.65
2022-08-11T16:28:17.096Z,3.88
2022-08-11T16:30:46.322Z,3.88
2022-08-11T16:33:48.468Z,4.05
2022-08-11T16:36:19.896Z,4.20
2022-08-11T16:38:46.364Z,3.85
2022-08-11T16:41:36.962Z,4.00
2022-08-11T16:44:36.901Z,4.20
2022-08-11T16:47:06.142Z,3.88
2022-08-11T16:49:38.382Z,4.03
2022-08-11T16:52:07.932Z,4.05
2022-08-11T16:54:35.502Z,3.80
2022-08-11T16:57:34.088Z,4.32
2022-08-11T17:00:07.351Z,4.18
2022-08-11T17:02:58.304Z,4.32
2022-08-11T17:05:53.782Z,4.05
2022-08-11T17:08:43.484Z,3.85
2022-08-11T17:11:42.827Z,4.13
2022-08-11T17:14:16.234Z,4.07
2022-08-11T17:16:49.028Z,4.88
2022-08-11T17:20:42.197Z,3.97
2022-08-11T17:22:38.773Z,4.43
2022-08-11T17:25:08.162Z,4.85
2022-08-11T17:27:35.225Z,4.43
2022-08-11T17:30:04.904Z,3.83
2022-08-11T17:32:56.315Z,4.53
2022-08-11T17:35:34.114Z,5.05
2022-08-11T17:38:16.912Z,4.53
2022-08-11T17:41:06.383Z,4.75
2022-08-11T17:44:02.249Z,3.30
2022-08-11T17:46:48.643Z,4.10
2022-08-11T17:49:16.688Z,3.92
2022-08-11T17:52:03.683Z,4.82
2022-08-11T17:54:49.968Z,4.32
2022-08-11T17:57:36.405Z,4.15
2022-08-11T18:00:06.997Z,4.88
2022-08-11T18:03:01.292Z,4.75
2022-08-11T18:05:31.623Z,4.68
2022-08-11T18:08:17.910Z,4.45
2022-08-11T18:11:03.691Z,4.35
2022-08-11T18:13:51.407Z,3.92
2022-08-11T18:16:36.782Z,4.53
2022-08-11T18:19:22.159Z,3.90
2022-08-11T18:22:14.854Z,4.55
2022-08-11T18:25:08.759Z,4.60
2022-08-11T18:27:56.508Z,4.38
2022-08-11T18:30:43.383Z,4.57
2022-08-11T18:36:42.639Z,4.45
2022-08-11T18:39:28.908Z,5.22
2022-08-11T18:42:28.743Z,4.15
2022-08-11T18:45:17.649Z,4.65
2022-08-11T18:48:04.429Z,4.53
2022-08-11T18:50:59.322Z,4.35
2022-08-11T18:53:57.567Z,4.45
2022-08-11T18:56:45.261Z,4.80
2022-08-11T18:59:31.040Z,5.05
2022-08-11T19:02:16.871Z,5.30
2022-08-11T19:05:03.272Z,4.63
2022-08-11T19:07:49.446Z,4.35
2022-08-11T19:10:37.655Z,4.50
2022-08-11T19:13:25.876Z,4.78
2022-08-11T19:16:13.346Z,5.15
2022-08-11T19:19:00.139Z,5.28
2022-08-11T19:21:46.491Z,5.70
2022-08-11T19:24:32.429Z,5.95
2022-08-11T19:27:17.174Z,9.73
2022-08-11T19:30:13.559Z,8.52
2022-08-11T19:32:59.931Z,6.80
2022-08-11T19:35:45.393Z,5.78
2022-08-11T19:38:31.148Z,6.60
2022-08-11T19:41:21.857Z,6.38
2022-08-11T19:44:23.690Z,5.13
2022-08-11T19:47:11.048Z,5.65
2022-08-11T19:49:58.281Z,5.07
2022-08-11T19:52:44.139Z,5.47
2022-08-11T19:55:29.237Z,5.50
2022-08-11T19:58:15.025Z,5.38
2022-08-11T20:01:01.997Z,4.78
2022-08-11T20:03:46.717Z,4.78
2022-08-11T20:06:35.110Z,4.93
2022-08-11T20:09:21.483Z,5.25
2022-08-11T20:12:10.347Z,4.68
2022-08-11T20:14:59.176Z,4.47
2022-08-11T20:17:46.881Z,4.40
2022-08-11T20:20:35.372Z,4.20
2022-08-11T20:23:24.346Z,4.45
2022-08-11T20:26:30.311Z,5.05
2022-08-11T20:29:18.265Z,4.70
2022-08-11T20:32:09.343Z,4.40
2022-08-11T20:34:56.686Z,3.90
2022-08-11T20:37:48.864Z,4.63
2022-08-11T20:40:38.910Z,4.30
2022-08-11T20:44:06.534Z,3.87
2022-08-11T20:46:36.405Z,4.27
2022-08-11T20:49:22.772Z,3.67
2022-08-11T20:52:08.174Z,4.13
2022-08-11T20:54:56.032Z,3.90
2022-08-11T20:58:01.419Z,4.20
2022-08-11T21:00:49.129Z,4.40
2022-08-11T21:03:44.918Z,3.93
2022-08-11T21:06:38.871Z,3.67
2022-08-11T21:09:58.388Z,3.80
2022-08-11T21:12:35.601Z,3.90
2022-08-11T21:15:46.866Z,4.13
2022-08-11T21:18:29.839Z,3.87
2022-08-11T21:21:18.196Z,3.53
2022-08-11T21:24:06.447Z,4.07
2022-08-11T21:26:53.669Z,3.20
2022-08-11T21:29:40.368Z,4.10
2022-08-11T21:32:25.696Z,3.83
2022-08-11T21:35:11.433Z,4.00
2022-08-11T21:37:57.166Z,3.83
2022-08-11T21:40:43.990Z,3.57
2022-08-11T21:43:30.240Z,4.17
2022-08-11T21:46:16.491Z,3.70
2022-08-11T21:49:03.339Z,3.57
2022-08-11T21:51:48.092Z,3.90
2022-08-11T21:54:34.459Z,3.23
2022-08-11T21:57:20.283Z,3.73
2022-08-11T22:00:14.256Z,3.60
2022-08-11T22:03:01.872Z,3.80
2022-08-11T22:05:50.694Z,4.07
2022-08-11T22:08:36.572Z,4.10
2022-08-11T22:11:31.916Z,4.30
2022-08-11T22:14:19.054Z,3.97
2022-08-11T22:17:03.895Z,3.50
2022-08-11T22:19:49.763Z,3.87
2022-08-11T22:22:35.082Z,3.93
2022-08-11T22:25:38.499Z,4.03
2022-08-11T22:28:23.783Z,4.37
2022-08-11T22:31:09.171Z,3.77
2022-08-11T22:34:02.783Z,3.93
2022-08-11T22:36:49.851Z,4.60
2022-08-11T22:39:35.858Z,4.03
2022-08-11T22:42:24.108Z,4.50
2022-08-11T22:45:18.406Z,3.90
2022-08-11T22:48:06.721Z,3.60
2022-08-11T22:50:55.663Z,4.63
2022-08-11T22:53:57.301Z,3.90
2022-08-11T22:56:46.465Z,3.97
2022-08-11T22:59:31.632Z,4.50
2022-08-11T23:02:17.055Z,4.67
2022-08-11T23:05:02.357Z,4.37
2022-08-11T23:07:50.847Z,4.43
2022-08-11T23:10:37.535Z,4.30
2022-08-11T23:13:22.819Z,4.07
2022-08-11T23:16:08.663Z,4.23
2022-08-11T23:18:54.120Z,4.17
2022-08-11T23:21:39.850Z,4.00
2022-08-11T23:24:26.057Z,4.40
2022-08-11T23:27:12.897Z,4.30
2022-08-11T23:30:00.222Z,4.40
2022-08-11T23:32:48.060Z,4.37
2022-08-11T23:35:38.464Z,4.20
2022-08-11T23:38:26.250Z,4.03
2022-08-11T23:41:11.532Z,4.40
2022-08-11T23:43:56.852Z,5.20
2022-08-11T23:46:45.141Z,5.00
2022-08-11T23:49:29.956Z,4.47
2022-08-11T23:52:15.377Z,4.10
2022-08-11T23:55:01.281Z,4.80
2022-08-11T23:57:49.281Z,4.70
